createdAt,value
2017-09-20T00:00:03.261Z,1.63
2017-09-20T00:02:30.973Z,2.13
2017-09-20T00:04:58.247Z,1.33
2017-09-20T00:07:24.856Z,1.73
2017-09-20T00:09:52.218Z,1.70
2017-09-20T00:12:19.303Z,2.80
2017-09-20T00:14:45.931Z,2.47
2017-09-20T00:17:13.786Z,1.63
2017-09-20T00:19:40.879Z,1.80
2017-09-20T00:22:07.500Z,1.97
2017-09-20T00:24:34.148Z,2.20
2017-09-20T00:27:01.468Z,3.33
2017-09-20T00:29:28.103Z,2.20
2017-09-20T00:31:54.727Z,1.73
2017-09-20T00:34:21.771Z,3.20
2017-09-20T00:36:48.384Z,2.40
2017-09-20T00:39:15.773Z,2.20
2017-09-20T00:41:42.875Z,4.83
2017-09-20T00:44:11.178Z,1.73
2017-09-20T00:46:38.699Z,2.13
2017-09-20T00:49:05.543Z,1.33
2017-09-20T00:51:32.155Z,4.53
2017-09-20T00:53:58.775Z,1.97
2017-09-20T00:56:25.911Z,3.47
2017-09-20T00:58:52.576Z,1.67
2017-09-20T01:01:19.219Z,1.73
2017-09-20T01:03:46.201Z,1.53
2017-09-20T01:06:14.299Z,1.37
2017-09-20T01:08:41.664Z,1.40
2017-09-20T01:11:08.558Z,1.23
2017-09-20T01:13:35.158Z,1.00
2017-09-20T01:16:02.105Z,1.30
2017-09-20T01:18:29.192Z,1.27
2017-09-20T01:21:14.324Z,1.63
2017-09-20T01:23:42.076Z,1.77
2017-09-20T01:26:08.718Z,1.20
2017-09-20T01:28:35.332Z,1.43
2017-09-20T01:31:03.172Z,1.27
2017-09-20T01:33:30.597Z,1.83
2017-09-20T01:35:57.204Z,2.30
2017-09-20T01:38:24.428Z,1.60
2017-09-20T01:40:52.137Z,1.17
2017-09-20T01:43:18.761Z,1.27
2017-09-20T01:45:45.862Z,1.30
2017-09-20T01:48:12.482Z,1.80
2017-09-20T01:50:39.098Z,2.03
2017-09-20T01:53:06.090Z,1.60
2017-09-20T01:55:33.582Z,1.87
2017-09-20T01:58:00.202Z,1.30
2017-09-20T02:00:28.045Z,1.70
2017-09-20T02:02:54.663Z,2.80
2017-09-20T02:05:21.283Z,1.20
2017-09-20T02:07:48.273Z,1.33
2017-09-20T02:10:15.661Z,1.40
2017-09-20T02:12:42.772Z,1.13
2017-09-20T02:15:11.230Z,1.60
2017-09-20T02:17:37.932Z,2.13
2017-09-20T02:20:05.525Z,1.13
2017-09-20T02:22:32.594Z,1.53
2017-09-20T02:24:59.219Z,1.20
2017-09-20T02:27:25.835Z,1.20
2017-09-20T02:29:52.774Z,2.90
2017-09-20T02:32:19.386Z,1.90
2017-09-20T02:34:46.117Z,2.40
2017-09-20T02:37:13.527Z,1.37
2017-09-20T02:39:40.699Z,1.83
2017-09-20T02:42:07.330Z,1.70
2017-09-20T02:44:34.239Z,2.20
2017-09-20T02:47:01.231Z,1.30
2017-09-20T02:49:28.230Z,1.17
2017-09-20T02:51:54.893Z,1.43
2017-09-20T02:54:21.959Z,1.70
2017-09-20T02:56:48.863Z,1.10
2017-09-20T02:59:15.483Z,1.50
2017-09-20T03:01:42.586Z,2.33
2017-09-20T03:04:09.217Z,1.33
2017-09-20T03:06:36.149Z,1.20
2017-09-20T03:09:03.332Z,2.13
2017-09-20T03:11:30.694Z,1.30
2017-09-20T03:13:58.053Z,1.50
2017-09-20T03:16:26.059Z,1.87
2017-09-20T03:18:52.670Z,1.10
2017-09-20T03:21:20.052Z,1.20
2017-09-20T03:23:47.407Z,1.10
2017-09-20T03:26:14.351Z,1.07
2017-09-20T03:28:40.969Z,1.10
2017-09-20T03:31:08.080Z,1.13
2017-09-20T03:33:34.730Z,1.40
2017-09-20T03:36:02.437Z,1.00
2017-09-20T03:38:29.536Z,2.40
2017-09-20T03:40:56.895Z,1.20
2017-09-20T03:43:24.259Z,1.20
2017-09-20T03:45:51.874Z,1.07
2017-09-20T03:48:19.264Z,1.73
2017-09-20T03:50:46.625Z,1.10
2017-09-20T03:53:14.371Z,1.23
2017-09-20T03:55:41.275Z,1.27
2017-09-20T03:58:08.220Z,1.43
2017-09-20T04:00:35.167Z,1.10
2017-09-20T04:03:02.350Z,1.10
2017-09-20T04:05:28.975Z,1.27
2017-09-20T04:07:55.627Z,1.10
2017-09-20T04:10:22.347Z,1.30
2017-09-20T04:12:48.989Z,1.30
2017-09-20T04:15:16.159Z,1.20
2017-09-20T04:17:42.769Z,1.00
2017-09-20T04:20:09.401Z,1.20
2017-09-20T04:22:36.486Z,1.20
2017-09-20T04:25:03.387Z,1.17
2017-09-20T04:27:30.015Z,1.17
2017-09-20T04:29:56.905Z,1.13
2017-09-20T04:32:23.522Z,1.20
2017-09-20T04:34:50.155Z,1.20
2017-09-20T04:37:17.271Z,2.30
2017-09-20T04:39:43.895Z,1.10
2017-09-20T04:42:11.591Z,1.10
2017-09-20T04:44:38.843Z,1.27
2017-09-20T04:47:05.452Z,1.03
2017-09-20T04:49:32.809Z,3.47
2017-09-20T04:52:00.561Z,1.10
2017-09-20T04:54:28.171Z,1.80
2017-09-20T04:56:54.778Z,1.10
2017-09-20T04:59:22.073Z,1.00
2017-09-20T05:01:48.696Z,1.20
2017-09-20T05:04:15.597Z,1.10
2017-09-20T05:06:43.499Z,1.77
2017-09-20T05:09:10.273Z,1.10
2017-09-20T05:11:36.905Z,1.20
2017-09-20T05:14:03.818Z,1.10
2017-09-20T05:16:30.913Z,1.23
2017-09-20T05:18:59.015Z,1.87
2017-09-20T05:21:26.927Z,1.50
2017-09-20T05:23:54.104Z,1.73
2017-09-20T05:26:20.731Z,1.10
2017-09-20T05:28:47.351Z,2.07
2017-09-20T05:31:14.426Z,2.03
2017-09-20T05:33:41.104Z,1.13
2017-09-20T05:36:07.715Z,1.50
2017-09-20T05:38:35.464Z,1.10
2017-09-20T05:41:02.075Z,1.77
2017-09-20T05:43:28.702Z,0.90
2017-09-20T05:45:55.331Z,1.07
2017-09-20T05:48:21.952Z,1.40
2017-09-20T05:50:48.953Z,1.10
2017-09-20T05:53:15.647Z,1.00
2017-09-20T05:55:42.601Z,47.23
2017-09-20T05:58:09.682Z,52.83
2017-09-20T06:00:36.315Z,52.80
2017-09-20T06:03:03.228Z,86.07
2017-09-20T06:05:30.212Z,129.63
2017-09-20T06:07:57.118Z,118.10
2017-09-20T06:10:23.735Z,164.97
2017-09-20T06:12:50.749Z,130.47
2017-09-20T06:15:18.177Z,75.47
2017-09-20T06:17:44.809Z,40.03
2017-09-20T06:20:11.688Z,38.40
2017-09-20T06:22:39.184Z,50.83
2017-09-20T06:25:05.818Z,35.90
2017-09-20T06:27:38.407Z,32.00
2017-09-20T06:30:05.565Z,14.03
2017-09-20T06:32:32.486Z,31.13
2017-09-20T06:34:59.117Z,21.27
2017-09-20T06:37:26.509Z,13.93
2017-09-20T06:39:53.593Z,9.03
2017-09-20T06:42:20.967Z,14.90
2017-09-20T06:44:48.323Z,11.93
2017-09-20T06:47:16.432Z,11.30
2017-09-20T06:49:43.576Z,16.03
2017-09-20T06:52:10.305Z,12.67
2017-09-20T06:54:37.571Z,13.40
2017-09-20T06:57:04.199Z,5.80
2017-09-20T06:59:30.863Z,6.33
2017-09-20T07:01:58.018Z,7.10
2017-09-20T07:04:24.634Z,7.33
2017-09-20T07:06:51.577Z,11.70
2017-09-20T07:09:18.608Z,12.70
2017-09-20T07:11:45.487Z,4.77
2017-09-20T07:14:12.128Z,7.77
2017-09-20T07:16:39.734Z,4.80
2017-09-20T07:19:07.105Z,11.70
2017-09-20T07:21:33.733Z,7.70
2017-09-20T07:24:01.380Z,4.97
2017-09-20T07:26:28.779Z,6.27
2017-09-20T07:28:55.719Z,4.87
2017-09-20T07:31:22.713Z,4.00
2017-09-20T07:33:50.818Z,5.30
2017-09-20T07:36:17.435Z,5.83
2017-09-20T07:38:45.465Z,8.60
2017-09-20T07:41:12.390Z,3.90
2017-09-20T07:43:39.011Z,4.50
2017-09-20T07:46:05.650Z,10.23
2017-09-20T07:48:32.771Z,7.53
2017-09-20T07:50:59.890Z,12.73
2017-09-20T07:53:28.078Z,5.63
2017-09-20T07:55:56.344Z,6.37
2017-09-20T07:58:24.535Z,6.00
2017-09-20T08:00:52.019Z,7.47
2017-09-20T08:03:19.953Z,12.13
2017-09-20T08:05:46.690Z,12.43
2017-09-20T08:08:13.317Z,5.97
2017-09-20T08:10:40.313Z,6.97
2017-09-20T08:13:07.664Z,10.50
2017-09-20T08:15:35.053Z,9.80
2017-09-20T08:18:01.883Z,6.20
2017-09-20T08:20:28.505Z,10.17
2017-09-20T08:22:55.225Z,6.03
2017-09-20T08:25:23.049Z,6.97
2017-09-20T08:27:49.807Z,5.33
2017-09-20T08:30:16.427Z,6.13
2017-09-20T08:32:43.504Z,8.17
2017-09-20T08:35:10.904Z,8.30
2017-09-20T08:37:37.548Z,13.00
2017-09-20T08:40:04.913Z,16.37
2017-09-20T08:42:31.543Z,12.13
2017-09-20T08:44:58.152Z,19.00
2017-09-20T08:47:25.887Z,17.10
2017-09-20T08:49:52.797Z,12.40
2017-09-20T08:52:19.452Z,15.00
2017-09-20T08:54:46.495Z,8.33
2017-09-20T08:57:13.130Z,10.10
2017-09-20T08:59:39.755Z,8.00
2017-09-20T09:02:06.843Z,11.03
2017-09-20T09:04:34.215Z,12.67
2017-09-20T09:07:01.573Z,16.60
2017-09-20T09:09:28.965Z,4.90
2017-09-20T09:11:55.570Z,8.97
2017-09-20T09:14:23.387Z,6.70
2017-09-20T09:16:50.012Z,9.43
2017-09-20T09:19:16.636Z,6.70
2017-09-20T09:21:43.832Z,10.17
2017-09-20T09:24:10.457Z,8.97
2017-09-20T09:26:37.080Z,18.27
2017-09-20T09:29:04.053Z,9.57
2017-09-20T09:31:32.147Z,7.80
2017-09-20T09:33:59.515Z,7.60
2017-09-20T09:36:26.527Z,5.07
2017-09-20T09:38:54.880Z,7.73
2017-09-20T09:41:21.507Z,5.10
2017-09-20T09:43:48.619Z,4.13
2017-09-20T09:46:15.980Z,4.27
2017-09-20T09:48:43.351Z,5.90
2017-09-20T09:51:10.245Z,5.40
2017-09-20T09:53:38.523Z,7.53
2017-09-20T09:56:05.891Z,2.77
2017-09-20T09:58:33.641Z,5.03
2017-09-20T10:01:00.316Z,6.50
2017-09-20T10:03:27.701Z,5.63
2017-09-20T10:05:55.044Z,5.10
2017-09-20T10:08:21.692Z,90.73
2017-09-20T10:10:48.313Z,110.97
2017-09-20T10:13:15.315Z,53.57
2017-09-20T10:15:42.209Z,62.30
2017-09-20T10:18:08.933Z,56.80
2017-09-20T10:20:36.198Z,50.77
2017-09-20T10:23:03.573Z,32.93
2017-09-20T10:25:30.223Z,31.70
2017-09-20T10:27:57.287Z,17.30
2017-09-20T10:30:24.938Z,24.47
2017-09-20T10:32:51.870Z,21.83
2017-09-20T10:35:18.583Z,19.50
2017-09-20T10:37:45.221Z,23.77
2017-09-20T10:40:12.210Z,24.33
2017-09-20T10:42:39.576Z,34.83
2017-09-20T10:45:06.952Z,24.00
2017-09-20T10:47:34.762Z,21.53
2017-09-20T10:50:01.398Z,20.13
2017-09-20T10:52:28.019Z,16.30
2017-09-20T10:54:54.841Z,20.80
2017-09-20T10:57:21.475Z,19.70
2017-09-20T10:59:48.085Z,16.20
2017-09-20T11:02:14.923Z,15.73
2017-09-20T11:04:42.539Z,16.73
2017-09-20T11:07:09.168Z,15.93
2017-09-20T11:09:36.068Z,18.57
2017-09-20T11:12:04.416Z,11.97
2017-09-20T11:14:31.466Z,21.53
2017-09-20T11:16:58.695Z,20.80
2017-09-20T11:19:25.310Z,22.23
2017-09-20T11:21:52.668Z,14.70
2017-09-20T11:24:19.719Z,14.57
2017-09-20T11:26:46.342Z,12.50
2017-09-20T11:29:13.752Z,9.17
2017-09-20T11:31:40.467Z,14.20
2017-09-20T11:34:07.564Z,16.53
2017-09-20T11:36:35.996Z,18.43
2017-09-20T11:39:02.787Z,9.47
2017-09-20T11:41:31.268Z,10.20
2017-09-20T11:43:58.626Z,12.33
2017-09-20T11:46:25.252Z,12.60
2017-09-20T11:48:52.407Z,10.93
2017-09-20T11:51:19.120Z,13.93
2017-09-20T11:53:45.752Z,60.30
2017-09-20T11:56:12.826Z,28.50
2017-09-20T11:58:40.977Z,23.07
2017-09-20T12:01:07.629Z,16.90
2017-09-20T12:03:34.279Z,16.60
2017-09-20T12:06:01.673Z,26.17
2017-09-20T12:08:28.529Z,17.43
2017-09-20T12:10:55.155Z,15.50
2017-09-20T12:13:21.939Z,19.43
2017-09-20T12:15:49.268Z,16.70
2017-09-20T12:18:15.901Z,15.57
2017-09-20T12:20:42.516Z,18.30
2017-09-20T12:23:10.250Z,15.63
2017-09-20T12:25:37.966Z,15.00
2017-09-20T12:28:04.585Z,10.60
2017-09-20T12:30:31.802Z,16.80
2017-09-20T12:32:59.158Z,14.50
2017-09-20T12:35:27.263Z,16.20
2017-09-20T12:37:54.203Z,10.33
2017-09-20T12:40:21.546Z,14.57
2017-09-20T12:42:48.909Z,13.93
2017-09-20T12:45:16.648Z,10.57
2017-09-20T12:47:44.153Z,14.53
2017-09-20T12:50:10.770Z,11.50
2017-09-20T12:52:38.607Z,12.60
2017-09-20T12:55:07.039Z,12.17
2017-09-20T12:57:33.984Z,11.20
2017-09-20T13:00:10.902Z,11.20
2017-09-20T13:02:37.817Z,9.37
2017-09-20T13:05:04.683Z,11.13
2017-09-20T13:07:31.539Z,13.20
2017-09-20T13:09:59.651Z,11.43
2017-09-20T13:12:26.256Z,12.70
2017-09-20T13:14:53.404Z,9.40
2017-09-20T13:17:20.301Z,10.30
2017-09-20T13:19:47.568Z,11.07
2017-09-20T13:22:14.633Z,11.13
2017-09-20T13:24:41.264Z,10.27
2017-09-20T13:27:07.894Z,9.93
2017-09-20T13:29:34.891Z,8.60
2017-09-20T13:32:02.503Z,10.83
2017-09-20T13:34:29.124Z,11.27
2017-09-20T13:36:56.103Z,9.67
2017-09-20T13:39:23.456Z,9.20
2017-09-20T13:41:50.054Z,8.43
2017-09-20T13:44:17.251Z,10.47
2017-09-20T13:46:44.758Z,8.93
2017-09-20T13:49:11.388Z,9.00
2017-09-20T13:51:38.391Z,8.43
2017-09-20T13:54:06.828Z,7.63
2017-09-20T13:56:33.773Z,8.50
2017-09-20T13:59:01.442Z,7.00
2017-09-20T14:01:28.068Z,9.10
2017-09-20T14:03:54.679Z,31.60
2017-09-20T14:06:22.519Z,95.47
2017-09-20T14:08:50.628Z,56.80
2017-09-20T14:11:18.227Z,60.20
2017-09-20T14:13:45.298Z,58.63
2017-09-20T14:16:11.907Z,47.17
2017-09-20T14:18:38.522Z,49.80
2017-09-20T14:21:06.384Z,34.40
2017-09-20T14:23:33.019Z,34.13
2017-09-20T14:25:59.645Z,31.43
2017-09-20T14:28:27.885Z,20.37
2017-09-20T14:30:54.739Z,20.93
2017-09-20T14:33:21.382Z,16.77
2017-09-20T14:35:49.037Z,24.10
2017-09-20T14:38:15.658Z,18.70
2017-09-20T14:40:43.771Z,30.30
2017-09-20T14:43:11.502Z,17.73
2017-09-20T14:45:38.179Z,21.33
2017-09-20T14:48:04.855Z,18.40
2017-09-20T14:50:31.819Z,20.97
2017-09-20T14:52:58.726Z,14.07
2017-09-20T14:55:25.365Z,25.63
2017-09-20T14:57:52.286Z,23.67
2017-09-20T15:00:19.653Z,19.23
2017-09-20T15:02:46.269Z,20.73
2017-09-20T15:05:14.392Z,13.43
2017-09-20T15:07:41.316Z,10.87
2017-09-20T15:10:08.069Z,12.53
2017-09-20T15:12:35.043Z,10.43
2017-09-20T15:15:08.092Z,12.70
2017-09-20T15:17:34.737Z,10.30
2017-09-20T15:20:01.830Z,8.33
2017-09-20T15:22:29.212Z,11.87
2017-09-20T15:24:56.279Z,10.40
2017-09-20T15:27:23.158Z,9.87
2017-09-20T15:29:49.802Z,12.50
2017-09-20T15:32:16.452Z,12.67
2017-09-20T15:34:44.319Z,7.10
2017-09-20T15:37:12.222Z,11.00
2017-09-20T15:39:38.882Z,9.97
2017-09-20T15:42:05.575Z,9.47
2017-09-20T15:44:33.271Z,9.57
2017-09-20T15:47:00.266Z,8.67
2017-09-20T15:49:27.663Z,13.57
2017-09-20T15:51:54.284Z,9.80
2017-09-20T15:54:21.970Z,7.03
2017-09-20T15:56:54.940Z,10.90
2017-09-20T15:59:21.559Z,6.13
2017-09-20T16:01:48.915Z,7.00
2017-09-20T16:04:16.666Z,4.97
2017-09-20T16:06:44.089Z,6.77
2017-09-20T16:09:11.015Z,7.33
2017-09-20T16:11:37.960Z,6.10
2017-09-20T16:14:04.592Z,5.20
2017-09-20T16:16:31.691Z,7.97
2017-09-20T16:18:59.416Z,5.53
2017-09-20T16:21:26.058Z,6.27
2017-09-20T16:23:53.030Z,7.70
2017-09-20T16:26:19.701Z,5.33
2017-09-20T16:28:47.074Z,6.73
2017-09-20T16:31:13.970Z,12.57
2017-09-20T16:33:40.975Z,14.27
2017-09-20T16:36:07.873Z,7.13
2017-09-20T16:38:34.919Z,4.77
2017-09-20T16:41:02.294Z,7.80
2017-09-20T16:43:29.650Z,9.30
2017-09-20T16:45:56.571Z,6.77
2017-09-20T16:48:23.929Z,7.90
2017-09-20T16:50:50.919Z,6.03
2017-09-20T16:53:17.917Z,7.70
2017-09-20T16:55:45.290Z,4.80
2017-09-20T16:58:13.001Z,6.57
2017-09-20T17:00:40.487Z,5.60
2017-09-20T17:03:07.860Z,7.20
2017-09-20T17:05:35.236Z,4.87
2017-09-20T17:08:02.713Z,6.37
2017-09-20T17:10:29.654Z,3.80
2017-09-20T17:12:56.306Z,4.20
2017-09-20T17:15:23.403Z,7.73
2017-09-20T17:17:50.779Z,4.43
2017-09-20T17:20:17.455Z,6.90
2017-09-20T17:22:44.526Z,3.83
2017-09-20T17:25:11.147Z,7.77
2017-09-20T17:27:37.778Z,8.23
2017-09-20T17:30:04.906Z,7.40
2017-09-20T17:32:31.520Z,5.67
2017-09-20T17:34:59.035Z,6.53
2017-09-20T17:37:25.949Z,7.90
2017-09-20T17:39:52.552Z,4.97
2017-09-20T17:42:20.662Z,4.60
2017-09-20T17:44:47.291Z,4.30
2017-09-20T17:47:13.883Z,4.30
2017-09-20T17:49:42.350Z,5.83
2017-09-20T17:52:08.959Z,5.73
2017-09-20T17:54:36.223Z,3.77
2017-09-20T17:57:03.398Z,9.47
2017-09-20T17:59:30.016Z,9.20
2017-09-20T18:01:56.931Z,14.70
2017-09-20T18:04:24.183Z,11.60
2017-09-20T18:06:50.810Z,11.03
2017-09-20T18:09:18.387Z,70.37
2017-09-20T18:14:18.404Z,64.07
2017-09-20T18:16:45.483Z,52.27
2017-09-20T18:19:12.829Z,60.10
2017-09-20T18:21:39.472Z,93.17
2017-09-20T18:24:06.401Z,64.10
2017-09-20T18:26:33.316Z,51.07
2017-09-20T18:29:00.684Z,80.03
2017-09-20T18:31:27.363Z,40.90
2017-09-20T18:33:53.996Z,57.33
2017-09-20T18:36:21.146Z,49.93
2017-09-20T18:38:47.787Z,42.90
2017-09-20T18:41:14.420Z,40.43
2017-09-20T18:43:41.490Z,42.53
2017-09-20T18:46:08.902Z,50.37
2017-09-20T18:48:35.559Z,34.77
2017-09-20T18:51:02.999Z,53.20
2017-09-20T18:53:29.635Z,32.73
2017-09-20T18:55:56.260Z,27.10
2017-09-20T18:58:22.910Z,39.50
2017-09-20T19:00:49.639Z,28.87
2017-09-20T19:03:17.029Z,31.50
2017-09-20T19:05:44.380Z,36.83
2017-09-20T19:08:11.108Z,24.07
2017-09-20T19:10:37.963Z,24.37
2017-09-20T19:13:05.149Z,22.27
2017-09-20T19:15:32.563Z,19.47
2017-09-20T19:17:59.308Z,18.37
2017-09-20T19:20:26.279Z,30.73
2017-09-20T19:22:53.774Z,20.53
2017-09-20T19:25:20.555Z,31.83
2017-09-20T19:27:47.555Z,21.57
2017-09-20T19:30:15.667Z,21.13
2017-09-20T19:32:42.371Z,21.60
2017-09-20T19:35:09.400Z,26.00
2017-09-20T19:37:37.084Z,25.13
2017-09-20T19:40:03.786Z,20.27
2017-09-20T19:42:31.011Z,29.50
2017-09-20T19:44:57.739Z,15.13
2017-09-20T19:47:24.438Z,27.50
2017-09-20T19:49:52.316Z,19.33
2017-09-20T19:52:18.995Z,18.97
2017-09-20T19:54:45.942Z,22.47
2017-09-20T19:57:13.074Z,20.80
2017-09-20T19:59:39.756Z,25.00
2017-09-20T20:02:06.582Z,10.90
2017-09-20T20:04:33.863Z,25.23
2017-09-20T20:07:01.316Z,14.80
2017-09-20T20:09:28.840Z,9.87
2017-09-20T20:11:55.936Z,16.07
2017-09-20T20:14:23.376Z,25.00
2017-09-20T20:16:50.050Z,22.60
2017-09-20T20:19:16.824Z,14.93
2017-09-20T20:21:43.523Z,16.10
2017-09-20T20:24:10.616Z,13.47
2017-09-20T20:26:37.331Z,18.50
2017-09-20T20:29:04.092Z,11.50
2017-09-20T20:31:31.218Z,19.23
2017-09-20T20:33:57.875Z,10.50
2017-09-20T20:36:24.488Z,12.73
2017-09-20T20:38:51.696Z,16.43
2017-09-20T20:41:19.058Z,8.03
2017-09-20T20:43:46.417Z,16.47
2017-09-20T20:46:14.466Z,11.73
2017-09-20T20:48:41.331Z,19.33
2017-09-20T20:51:08.692Z,14.13
2017-09-20T20:53:36.143Z,5.97
2017-09-20T20:56:03.583Z,13.03
2017-09-20T20:58:31.373Z,6.57
2017-09-20T21:00:58.751Z,14.23
2017-09-20T21:03:25.359Z,9.03
2017-09-20T21:05:53.039Z,13.53
2017-09-20T21:08:19.638Z,8.63
2017-09-20T21:10:48.279Z,7.17
2017-09-20T21:13:15.371Z,7.13
2017-09-20T21:15:42.771Z,6.27
2017-09-20T21:18:09.395Z,5.40
2017-09-20T21:20:36.784Z,10.60
2017-09-20T21:23:03.971Z,9.03
2017-09-20T21:25:31.542Z,9.80
2017-09-20T21:27:58.899Z,12.27
2017-09-20T21:30:26.610Z,16.30
2017-09-20T21:32:53.241Z,10.00
2017-09-20T21:35:19.845Z,11.87
2017-09-20T21:37:47.694Z,7.33
2017-09-20T21:40:15.507Z,8.10
2017-09-20T21:42:42.118Z,7.10
2017-09-20T21:45:09.815Z,4.73
2017-09-20T21:47:36.596Z,12.80
2017-09-20T21:50:04.694Z,6.13
2017-09-20T21:52:32.322Z,5.80
2017-09-20T21:54:59.226Z,9.47
2017-09-20T21:57:25.861Z,4.40
2017-09-20T21:59:52.846Z,9.90
2017-09-20T22:02:20.576Z,7.60
2017-09-20T22:04:47.210Z,7.07
2017-09-20T22:07:14.194Z,6.87
2017-09-20T22:09:40.790Z,6.83
2017-09-20T22:12:07.421Z,7.20
2017-09-20T22:14:34.891Z,7.30
2017-09-20T22:17:20.043Z,7.93
2017-09-20T22:20:05.484Z,6.40
2017-09-20T22:22:51.232Z,9.60
2017-09-20T22:25:36.740Z,5.30
2017-09-20T22:28:03.334Z,5.63
2017-09-20T22:30:30.068Z,6.60
2017-09-20T22:32:57.148Z,8.00
2017-09-20T22:35:24.449Z,5.37
2017-09-20T22:37:51.807Z,5.70
2017-09-20T22:40:19.805Z,4.50
2017-09-20T22:42:46.425Z,3.77
2017-09-20T22:45:13.386Z,4.43
2017-09-20T22:47:40.482Z,5.37
2017-09-20T22:50:07.379Z,5.73
2017-09-20T22:52:34.322Z,5.83
2017-09-20T22:55:01.319Z,6.43
2017-09-20T22:57:28.695Z,5.17
2017-09-20T22:59:56.390Z,5.40
2017-09-20T23:02:23.886Z,4.77
2017-09-20T23:04:50.792Z,3.53
2017-09-20T23:07:17.415Z,5.37
2017-09-20T23:09:44.451Z,8.70
2017-09-20T23:12:11.809Z,11.23
2017-09-20T23:14:38.423Z,6.30
2017-09-20T23:17:05.460Z,5.77
2017-09-20T23:19:33.572Z,6.37
2017-09-20T23:22:00.247Z,4.77
2017-09-20T23:24:27.217Z,3.53
2017-09-20T23:26:54.833Z,6.50
2017-09-20T23:29:21.775Z,3.70
2017-09-20T23:31:48.410Z,5.63
2017-09-20T23:34:15.038Z,5.10
2017-09-20T23:36:42.039Z,5.20
2017-09-20T23:39:08.653Z,3.70
2017-09-20T23:41:35.683Z,4.07
2017-09-20T23:44:02.696Z,3.17
2017-09-20T23:46:30.055Z,4.57
2017-09-20T23:48:57.420Z,3.33
2017-09-20T23:51:30.664Z,2.97
2017-09-20T23:53:57.290Z,5.70
2017-09-20T23:56:23.904Z,2.70
2017-09-20T23:58:50.999Z,5.03
